Time;durP1;ratioP1;P1;durP2;ratioP2;P2;SDS_P1;SDS_P2;PMS_P1;PMS_P2;Temp;Humidity;BMP_temperature;BMP_pressure;BME280_temperature;BME280_humidity;BME280_pressure;Samples;Min_cycle;Max_cycle;Signal;HPM_P1;HPM_P2
2021/07/14 00:02:12;;;;;;;27.27;20.43;;;21.70;99.90;;;;;;5037859;28;20443;-84
2021/07/14 00:04:39;;;;;;;31.00;20.63;;;21.70;99.90;;;;;;5031441;28;20549;-84
2021/07/14 00:07:08;;;;;;;26.60;21.50;;;21.60;99.90;;;;;;5037813;28;20464;-84
2021/07/14 00:09:35;;;;;;;22.50;19.67;;;21.60;99.90;;;;;;5034866;28;20439;-84
2021/07/14 00:12:06;;;;;;;23.07;20.67;;;21.60;99.90;;;;;;5039976;28;20543;-84
2021/07/14 00:14:58;;;;;;;20.17;18.17;;;21.60;99.90;;;;;;5037892;28;21031;-84
2021/07/14 00:17:33;;;;;;;21.67;18.90;;;21.60;99.90;;;;;;5030361;28;20448;-84
2021/07/14 00:22:46;;;;;;;25.80;20.43;;;21.50;99.90;;;;;;5036354;28;20453;-84
2021/07/14 00:25:14;;;;;;;26.73;21.67;;;21.50;99.90;;;;;;5040960;28;20470;-84
2021/07/14 00:27:43;;;;;;;23.27;20.93;;;21.40;99.90;;;;;;5039463;28;20530;-84
2021/07/14 00:30:15;;;;;;;23.03;20.50;;;21.40;99.90;;;;;;5040863;28;20470;-85
2021/07/14 00:32:42;;;;;;;24.83;19.23;;;21.40;99.90;;;;;;5039407;28;20472;-84
2021/07/14 00:35:12;;;;;;;21.13;18.60;;;21.40;99.90;;;;;;5042635;28;20471;-84
2021/07/14 00:37:39;;;;;;;24.33;20.40;;;21.40;99.90;;;;;;5035536;28;20488;-84
2021/07/14 00:40:11;;;;;;;24.83;20.30;;;21.40;99.90;;;;;;5036217;28;20449;-84
2021/07/14 00:42:39;;;;;;;22.60;19.17;;;21.30;99.90;;;;;;5041759;28;20516;-84
2021/07/14 00:45:08;;;;;;;22.93;20.07;;;21.40;99.90;;;;;;5037938;28;20474;-85
2021/07/14 00:47:37;;;;;;;29.10;21.67;;;21.40;99.90;;;;;;5035774;28;20542;-84
2021/07/14 00:50:07;;;;;;;28.93;22.70;;;21.40;99.90;;;;;;5030600;28;20450;-84
2021/07/14 00:52:36;;;;;;;25.73;23.03;;;21.40;99.90;;;;;;5029411;28;20446;-84
2021/07/14 00:55:03;;;;;;;26.50;22.33;;;21.40;99.90;;;;;;5040326;28;20477;-84
2021/07/14 00:57:32;;;;;;;27.70;22.60;;;21.40;99.90;;;;;;5037146;28;20459;-85
2021/07/14 00:59:59;;;;;;;23.93;18.47;;;21.40;99.90;;;;;;5041473;28;20860;-85
2021/07/14 01:02:28;;;;;;;28.47;22.43;;;21.50;99.90;;;;;;5027202;28;20482;-84
2021/07/14 01:05:01;;;;;;;21.60;18.90;;;21.50;99.90;;;;;;5037944;28;20972;-84
2021/07/14 01:07:32;;;;;;;22.70;18.80;;;21.50;99.90;;;;;;5035923;28;20465;-85
2021/07/14 01:10:05;;;;;;;20.80;18.47;;;21.50;99.90;;;;;;5021610;28;20471;-84
2021/07/14 01:12:43;;;;;;;23.17;20.67;;;21.50;99.90;;;;;;5016736;28;20455;-83
2021/07/14 01:15:14;;;;;;;28.67;23.17;;;21.50;99.90;;;;;;5035512;28;20988;-86
2021/07/14 01:17:57;;;;;;;32.03;21.43;;;21.50;99.90;;;;;;5026190;28;20440;-83
2021/07/14 01:20:51;;;;;;;29.67;23.80;;;21.50;99.90;;;;;;5012036;28;20484;-83
2021/07/14 01:23:26;;;;;;;26.53;23.13;;;21.40;99.90;;;;;;5033576;28;20459;-83
2021/07/14 01:26:05;;;;;;;30.47;21.70;;;21.40;99.90;;;;;;5029109;28;20465;-84
2021/07/14 01:28:36;;;;;;;25.57;22.90;;;21.30;99.90;;;;;;5027604;28;20439;-84
2021/07/14 01:31:04;;;;;;;28.20;25.30;;;21.30;99.90;;;;;;5029725;28;20474;-84
2021/07/14 01:33:44;;;;;;;31.30;26.77;;;21.30;99.90;;;;;;5037061;28;20599;-84
2021/07/14 01:36:15;;;;;;;27.33;22.70;;;21.30;99.90;;;;;;5022926;28;20468;-84
2021/07/14 01:38:48;;;;;;;24.37;21.77;;;21.20;99.90;;;;;;5036653;28;20469;-85
2021/07/14 01:41:17;;;;;;;27.23;23.40;;;21.30;99.90;;;;;;5031805;28;20457;-83
2021/07/14 01:43:49;;;;;;;27.80;24.77;;;21.30;99.90;;;;;;5030606;28;20457;-83
2021/07/14 01:46:17;;;;;;;23.70;21.23;;;21.30;99.90;;;;;;5034533;28;20436;-83
2021/07/14 01:48:46;;;;;;;37.03;28.20;;;21.30;99.90;;;;;;5029510;28;20477;-83
2021/07/14 01:51:16;;;;;;;30.93;25.37;;;21.20;99.90;;;;;;5038714;28;20823;-83
2021/07/14 01:53:45;;;;;;;33.50;24.33;;;21.20;99.90;;;;;;5031217;28;20541;-84
2021/07/14 01:56:14;;;;;;;31.67;26.60;;;21.20;99.90;;;;;;5038028;28;20446;-84
2021/07/14 01:58:43;;;;;;;28.03;25.13;;;21.20;99.90;;;;;;5033562;28;20492;-84
2021/07/14 02:01:14;;;;;;;26.60;23.80;;;21.30;99.90;;;;;;5024661;28;20454;-84
2021/07/14 02:03:55;;;;;;;30.13;26.33;;;21.30;99.90;;;;;;5041386;28;20453;-84
2021/07/14 02:06:23;;;;;;;30.80;24.43;;;21.30;99.90;;;;;;5026678;28;20448;-85
2021/07/14 02:08:50;;;;;;;31.90;25.67;;;21.30;99.90;;;;;;5034969;28;20445;-84
2021/07/14 02:11:24;;;;;;;33.03;25.90;;;21.30;99.90;;;;;;5024239;28;20461;-83
2021/07/14 02:13:53;;;;;;;28.63;25.50;;;21.30;99.90;;;;;;5025564;28;20995;-84
2021/07/14 02:16:23;;;;;;;29.20;25.37;;;21.30;99.90;;;;;;5033965;28;20450;-83
2021/07/14 02:18:59;;;;;;;29.77;26.57;;;21.30;99.90;;;;;;5033967;28;20581;-83
2021/07/14 02:21:41;;;;;;;29.63;26.37;;;21.30;99.90;;;;;;5035061;28;20457;-83
2021/07/14 02:24:11;;;;;;;34.90;29.67;;;21.30;99.90;;;;;;5032471;28;20463;-84
2021/07/14 02:26:38;;;;;;;28.67;25.77;;;21.40;99.90;;;;;;5037848;28;20453;-83
2021/07/14 02:29:06;;;;;;;31.30;24.83;;;21.40;99.90;;;;;;5025742;28;20490;-84
2021/07/14 02:31:49;;;;;;;28.50;25.00;;;21.40;99.90;;;;;;5037068;28;20521;-83
2021/07/14 02:34:17;;;;;;;28.93;24.83;;;21.40;99.90;;;;;;5038266;28;20831;-84
2021/07/14 02:36:49;;;;;;;31.53;28.33;;;21.40;99.90;;;;;;5037562;28;20465;-84
2021/07/14 02:39:17;;;;;;;28.53;25.10;;;21.40;99.90;;;;;;5032487;28;20546;-84
2021/07/14 02:41:52;;;;;;;29.70;26.47;;;21.50;99.90;;;;;;5031301;28;20441;-84
2021/07/14 02:44:22;;;;;;;29.67;26.40;;;21.50;99.90;;;;;;5031914;28;20473;-84
2021/07/14 02:46:54;;;;;;;33.47;30.07;;;21.50;99.90;;;;;;5020175;28;20505;-85
2021/07/14 02:49:27;;;;;;;33.13;27.80;;;21.50;99.90;;;;;;5036974;28;20955;-84
2021/07/14 02:51:55;;;;;;;34.47;26.47;;;21.50;99.90;;;;;;5027620;28;20539;-84
2021/07/14 02:54:25;;;;;;;27.90;24.30;;;21.50;99.90;;;;;;5021464;28;20543;-84
2021/07/14 02:56:59;;;;;;;35.03;26.60;;;21.60;99.90;;;;;;5029133;28;20458;-84
2021/07/14 02:59:29;;;;;;;38.63;30.90;;;21.50;99.90;;;;;;5007283;28;20540;-84
2021/07/14 03:01:59;;;;;;;34.33;27.13;;;21.50;99.90;;;;;;5029769;28;20469;-84
2021/07/14 03:04:30;;;;;;;31.17;27.83;;;21.50;99.90;;;;;;5022149;28;20491;-84
2021/07/14 03:07:02;;;;;;;32.20;28.00;;;21.50;99.90;;;;;;5031304;28;20447;-83
2021/07/14 03:09:37;;;;;;;31.67;28.43;;;21.50;99.90;;;;;;5031414;28;20441;-84
2021/07/14 03:12:09;;;;;;;30.80;27.47;;;21.50;99.90;;;;;;5025590;28;20481;-83
2021/07/14 03:14:41;;;;;;;29.27;25.93;;;21.50;99.90;;;;;;5028895;28;20490;-84
2021/07/14 03:17:12;;;;;;;33.87;29.20;;;21.50;99.90;;;;;;5022001;28;20484;-83
2021/07/14 03:19:40;;;;;;;34.23;30.73;;;21.50;99.90;;;;;;5031318;28;20884;-83
2021/07/14 03:22:07;;;;;;;36.30;30.23;;;21.40;99.90;;;;;;5026152;28;20468;-83
2021/07/14 03:24:36;;;;;;;38.33;28.60;;;21.40;99.90;;;;;;5028185;28;20483;-84
2021/07/14 03:27:05;;;;;;;32.57;28.63;;;21.40;99.90;;;;;;5029780;28;20435;-83
2021/07/14 03:29:33;;;;;;;34.83;29.77;;;21.40;99.90;;;;;;5027888;28;20462;-83
2021/07/14 03:32:02;;;;;;;35.83;31.93;;;21.50;99.90;;;;;;5031649;28;20456;-84
2021/07/14 03:34:31;;;;;;;34.50;30.90;;;21.40;99.90;;;;;;5024208;28;21043;-83
2021/07/14 03:37:04;;;;;;;34.73;29.60;;;21.40;99.90;;;;;;5028212;28;20442;-83
2021/07/14 03:39:44;;;;;;;32.80;29.40;;;21.40;99.90;;;;;;5016056;28;20527;-84
2021/07/14 03:42:13;;;;;;;34.27;28.23;;;21.40;99.90;;;;;;5033088;28;20457;-83
2021/07/14 03:44:42;;;;;;;33.00;29.47;;;21.40;99.90;;;;;;5018584;28;20472;-83
2021/07/14 03:47:10;;;;;;;32.00;27.50;;;21.40;99.90;;;;;;5024135;28;20434;-83
2021/07/14 03:49:40;;;;;;;36.97;31.70;;;21.40;99.90;;;;;;5027004;28;20493;-84
2021/07/14 03:52:08;;;;;;;33.63;30.03;;;21.40;99.90;;;;;;5025523;28;20455;-84
2021/07/14 03:54:35;;;;;;;42.03;33.83;;;21.40;99.90;;;;;;5032524;28;20494;-85
2021/07/14 03:57:03;;;;;;;35.90;32.03;;;21.40;99.90;;;;;;5029250;28;20452;-83
2021/07/14 03:59:32;;;;;;;34.33;30.77;;;21.40;99.90;;;;;;5033079;28;20482;-85
2021/07/14 04:02:00;;;;;;;39.73;33.53;;;21.30;99.90;;;;;;5028569;28;20485;-83
2021/07/14 04:04:27;;;;;;;38.77;34.60;;;21.30;99.90;;;;;;5037097;28;20500;-83
2021/07/14 04:06:59;;;;;;;39.13;34.20;;;21.30;99.90;;;;;;5028195;28;20444;-83
2021/07/14 04:09:27;;;;;;;39.40;33.63;;;21.30;99.90;;;;;;5017705;28;20469;-83
2021/07/14 04:12:01;;;;;;;39.30;35.07;;;21.30;99.90;;;;;;5029833;28;20465;-83
2021/07/14 04:14:30;;;;;;;41.67;34.27;;;21.40;99.90;;;;;;5018185;28;20465;-83
2021/07/14 04:16:58;;;;;;;40.40;33.30;;;21.40;99.90;;;;;;5030342;28;20446;-84
2021/07/14 04:19:26;;;;;;;34.63;31.03;;;21.50;99.90;;;;;;5027263;28;20480;-84
2021/07/14 04:21:53;;;;;;;47.67;39.00;;;21.50;99.90;;;;;;5029880;28;20464;-83
2021/07/14 04:24:22;;;;;;;39.77;35.50;;;21.40;99.90;;;;;;5034062;28;20473;-83
2021/07/14 04:26:52;;;;;;;43.50;36.60;;;21.40;99.90;;;;;;5037687;28;20821;-84
2021/07/14 04:29:19;;;;;;;47.47;39.70;;;21.40;99.90;;;;;;5036790;28;20501;-83
2021/07/14 04:31:46;;;;;;;48.20;39.77;;;21.40;99.90;;;;;;5030639;28;20460;-84
2021/07/14 04:34:18;;;;;;;49.57;42.73;;;21.40;99.90;;;;;;5032753;28;20482;-83
2021/07/14 04:36:45;;;;;;;46.73;39.07;;;21.30;99.90;;;;;;5034611;28;20484;-83
2021/07/14 04:39:13;;;;;;;42.57;38.03;;;21.40;99.90;;;;;;5023082;28;20489;-83
2021/07/14 04:41:41;;;;;;;44.07;38.87;;;21.40;99.90;;;;;;5037152;28;20684;-83
2021/07/14 04:44:10;;;;;;;51.47;41.87;;;21.40;99.90;;;;;;5035886;28;20504;-84
2021/07/14 04:46:38;;;;;;;48.97;43.67;;;21.40;99.90;;;;;;5032914;28;20536;-83
2021/07/14 04:49:11;;;;;;;50.60;43.00;;;21.40;99.90;;;;;;5027038;28;20477;-83
2021/07/14 04:51:38;;;;;;;46.33;41.20;;;21.40;99.90;;;;;;5027255;28;20457;-84
2021/07/14 04:54:05;;;;;;;51.30;42.30;;;21.30;99.90;;;;;;5036094;28;20525;-83
2021/07/14 04:56:35;;;;;;;48.40;43.10;;;21.30;99.90;;;;;;5034503;28;20453;-83
2021/07/14 04:59:03;;;;;;;53.80;44.33;;;21.30;99.90;;;;;;5036177;28;20484;-83
2021/07/14 05:01:32;;;;;;;43.90;39.30;;;21.30;99.90;;;;;;5030628;28;20446;-83
2021/07/14 05:03:59;;;;;;;45.93;40.20;;;21.30;99.90;;;;;;5034052;28;20457;-83
2021/07/14 05:06:26;;;;;;;45.03;40.13;;;21.40;99.90;;;;;;5034270;28;20442;-84
2021/07/14 05:08:53;;;;;;;42.97;38.37;;;21.40;99.90;;;;;;5035167;28;20500;-83
2021/07/14 05:11:20;;;;;;;45.73;40.70;;;21.50;99.90;;;;;;5034799;28;20457;-85
2021/07/14 05:13:51;;;;;;;39.17;34.83;;;21.50;99.90;;;;;;5034446;28;20810;-83
2021/07/14 05:16:19;;;;;;;46.70;41.83;;;21.60;99.90;;;;;;5046059;28;20434;-84
2021/07/14 05:18:46;;;;;;;45.50;38.90;;;21.70;99.90;;;;;;5032538;28;20460;-85
2021/07/14 05:21:13;;;;;;;38.80;34.63;;;21.60;99.90;;;;;;5053332;28;20446;-86
2021/07/14 05:23:40;;;;;;;42.97;38.57;;;21.60;99.90;;;;;;5045436;28;20426;-85
2021/07/14 05:26:08;;;;;;;43.33;38.47;;;21.60;99.90;;;;;;5045422;28;20535;-85
2021/07/14 05:28:35;;;;;;;47.13;42.20;;;21.60;99.90;;;;;;5038350;28;20486;-85
2021/07/14 05:31:02;;;;;;;46.20;41.40;;;21.60;99.90;;;;;;5049584;28;20439;-84
2021/07/14 05:33:30;;;;;;;51.40;42.20;;;21.60;99.90;;;;;;5043740;28;20488;-85
2021/07/14 05:35:57;;;;;;;44.53;39.73;;;21.60;99.90;;;;;;5053274;28;20455;-83
2021/07/14 05:38:25;;;;;;;41.70;37.20;;;21.60;99.90;;;;;;5047057;28;20434;-83
2021/07/14 05:40:53;;;;;;;44.97;40.23;;;21.60;99.90;;;;;;5050832;28;20505;-85
2021/07/14 05:43:20;;;;;;;47.50;40.60;;;21.70;99.90;;;;;;5029814;28;20435;-84
2021/07/14 05:45:48;;;;;;;44.70;40.10;;;21.70;99.90;;;;;;5040785;28;20471;-84
2021/07/14 05:48:15;;;;;;;37.50;33.50;;;21.70;99.90;;;;;;5044040;28;20447;-83
2021/07/14 05:50:45;;;;;;;41.97;37.67;;;21.90;99.90;;;;;;5048723;28;20563;-82
2021/07/14 05:53:13;;;;;;;37.50;33.87;;;21.90;99.90;;;;;;5034789;28;20439;-82
2021/07/14 05:55:40;;;;;;;54.30;48.40;;;22.10;99.90;;;;;;5021630;28;20530;-82
2021/07/14 05:58:07;;;;;;;42.40;38.00;;;22.20;99.90;;;;;;5009017;28;20455;-83
2021/07/14 06:00:34;;;;;;;39.20;34.80;;;22.20;99.90;;;;;;5030876;28;20470;-83
2021/07/14 06:03:02;;;;;;;39.83;34.50;;;22.20;99.90;;;;;;5022733;28;20474;-82
2021/07/14 06:05:29;;;;;;;36.70;33.10;;;22.30;99.90;;;;;;5035044;28;20474;-83
2021/07/14 06:08:03;;;;;;;40.80;36.70;;;22.40;99.90;;;;;;5031687;28;20461;-83
2021/07/14 06:10:30;;;;;;;39.67;35.60;;;22.40;99.90;;;;;;5012705;28;20439;-84
2021/07/14 06:12:59;;;;;;;40.90;36.50;;;22.40;99.90;;;;;;5027168;28;20481;-83
2021/07/14 06:15:27;;;;;;;45.23;40.63;;;22.40;99.90;;;;;;5028641;28;20502;-83
2021/07/14 06:17:55;;;;;;;39.20;34.87;;;22.60;99.90;;;;;;5031854;28;20795;-84
2021/07/14 06:20:23;;;;;;;34.20;30.90;;;22.70;99.90;;;;;;5016470;28;21134;-84
2021/07/14 06:22:50;;;;;;;36.57;32.73;;;23.00;99.90;;;;;;5026676;28;20464;-83
2021/07/14 06:25:19;;;;;;;39.37;35.27;;;23.20;99.90;;;;;;5021987;28;20470;-84
2021/07/14 06:27:47;;;;;;;34.80;31.40;;;23.40;99.90;;;;;;5017568;28;20451;-84
2021/07/14 06:30:16;;;;;;;32.73;29.60;;;23.50;99.90;;;;;;5029195;28;20439;-84
2021/07/14 06:32:44;;;;;;;39.67;35.60;;;23.60;99.90;;;;;;5025503;28;20889;-84
2021/07/14 06:35:12;;;;;;;38.17;33.93;;;23.70;99.90;;;;;;5030351;28;20459;-85
2021/07/14 06:37:40;;;;;;;36.80;33.10;;;23.80;99.90;;;;;;5035492;28;20444;-84
2021/07/14 06:40:09;;;;;;;39.30;33.87;;;23.70;99.90;;;;;;5031548;28;20494;-84
2021/07/14 06:42:41;;;;;;;42.63;38.27;;;23.80;99.90;;;;;;5028230;28;20451;-83
2021/07/14 06:45:10;;;;;;;40.37;36.17;;;23.90;99.90;;;;;;5023628;28;20475;-82
2021/07/14 06:47:38;;;;;;;36.47;32.73;;;23.90;99.90;;;;;;5018938;28;20448;-83
2021/07/14 06:50:10;;;;;;;32.33;29.03;;;24.00;99.90;;;;;;5020263;28;20508;-83
2021/07/14 06:52:42;;;;;;;34.23;30.80;;;24.10;99.90;;;;;;5025371;28;20792;-84
2021/07/14 06:55:14;;;;;;;36.47;31.93;;;24.10;99.90;;;;;;5013701;28;20574;-84
2021/07/14 06:58:03;;;;;;;35.90;32.37;;;23.80;99.90;;;;;;5021708;28;20450;-83
2021/07/14 07:00:38;;;;;;;33.60;30.30;;;23.70;99.90;;;;;;5018609;28;20878;-84
2021/07/14 07:03:05;;;;;;;41.60;37.33;;;23.60;99.90;;;;;;5015505;28;20497;-83
2021/07/14 07:05:35;;;;;;;40.20;36.40;;;23.50;99.90;;;;;;5022954;28;20464;-84
2021/07/14 07:08:09;;;;;;;45.10;37.53;;;23.40;99.90;;;;;;5038916;28;20444;-86
2021/07/14 07:10:50;;;;;;;38.33;34.50;;;23.30;99.90;;;;;;5050792;28;20427;-84
2021/07/14 07:13:19;;;;;;;38.40;33.80;;;23.20;99.90;;;;;;5039704;28;20459;-86
2021/07/14 07:15:46;;;;;;;40.40;35.10;;;23.20;99.90;;;;;;5048494;28;20455;-86
2021/07/14 07:18:19;;;;;;;39.30;35.13;;;23.10;99.90;;;;;;5039584;28;20454;-83
2021/07/14 07:20:54;;;;;;;36.47;32.80;;;23.20;99.90;;;;;;5042818;28;20542;-84
2021/07/14 07:23:33;;;;;;;36.47;30.60;;;23.20;99.90;;;;;;5029855;28;20487;-84
2021/07/14 07:26:00;;;;;;;34.20;30.80;;;23.20;99.90;;;;;;5027826;28;20464;-83
2021/07/14 07:28:34;;;;;;;41.63;30.20;;;23.20;99.90;;;;;;5040414;28;20467;-83
2021/07/14 07:31:01;;;;;;;33.07;29.47;;;23.20;99.90;;;;;;5023545;28;20445;-84
2021/07/14 07:33:28;;;;;;;33.77;30.43;;;23.30;99.90;;;;;;5036632;28;20493;-84
2021/07/14 07:35:55;;;;;;;34.97;31.27;;;23.20;99.90;;;;;;5028945;28;20468;-83
2021/07/14 07:38:23;;;;;;;36.73;33.10;;;23.20;99.90;;;;;;5027384;28;20446;-85
2021/07/14 07:40:54;;;;;;;36.03;32.03;;;23.10;99.90;;;;;;5040958;28;20983;-84
2021/07/14 07:43:43;;;;;;;38.93;33.30;;;23.10;99.90;;;;;;5037693;28;20456;-84
2021/07/14 07:46:17;;;;;;;40.80;33.47;;;23.10;99.90;;;;;;5022415;28;20480;-85
2021/07/14 07:48:44;;;;;;;36.57;27.07;;;23.00;99.90;;;;;;5074306;22;20501;-84
2021/07/14 07:51:25;;;;;;;28.97;26.07;;;23.10;99.90;;;;;;5054037;28;20505;-84
2021/07/14 07:53:53;;;;;;;33.00;29.60;;;23.20;99.90;;;;;;5057983;28;20442;-84
2021/07/14 07:56:21;;;;;;;33.90;29.73;;;23.40;99.90;;;;;;5053243;28;20461;-85
2021/07/14 07:58:49;;;;;;;30.97;27.83;;;23.30;99.90;;;;;;5055358;28;20506;-83
2021/07/14 08:01:16;;;;;;;34.23;30.53;;;23.40;99.90;;;;;;5054895;28;20496;-83
2021/07/14 08:03:43;;;;;;;31.90;28.50;;;23.40;99.90;;;;;;5044851;28;20439;-84
2021/07/14 08:06:10;;;;;;;33.20;29.73;;;23.50;99.90;;;;;;5045973;28;20474;-84
2021/07/14 08:08:57;;;;;;;30.50;27.30;;;23.50;99.90;;;;;;5051708;28;20473;-84
2021/07/14 08:11:24;;;;;;;32.13;28.83;;;23.60;99.90;;;;;;5037562;28;20438;-83
2021/07/14 08:13:55;;;;;;;31.20;27.73;;;23.70;99.90;;;;;;5045760;28;20449;-84
2021/07/14 08:16:22;;;;;;;34.77;31.27;;;23.80;99.90;;;;;;5043676;28;20499;-84
2021/07/14 08:18:49;;;;;;;34.20;30.17;;;23.90;99.90;;;;;;5047968;28;20473;-84
2021/07/14 08:21:16;;;;;;;37.17;33.43;;;24.00;99.90;;;;;;5050412;28;20565;-84
2021/07/14 08:23:44;;;;;;;31.73;28.47;;;24.00;99.90;;;;;;5035074;28;20454;-84
2021/07/14 08:26:12;;;;;;;29.50;26.67;;;24.20;99.90;;;;;;5062263;28;20446;-84
2021/07/14 08:28:39;;;;;;;30.93;27.60;;;24.20;99.90;;;;;;5054919;28;20446;-83
2021/07/14 08:31:07;;;;;;;34.40;31.00;;;24.10;99.90;;;;;;5057935;28;20484;-85
2021/07/14 08:33:35;;;;;;;34.40;30.80;;;24.00;99.90;;;;;;5045316;28;20442;-83
2021/07/14 08:36:02;;;;;;;37.10;33.23;;;23.90;99.90;;;;;;5049492;28;20478;-85
2021/07/14 08:38:29;;;;;;;38.17;34.30;;;23.80;99.90;;;;;;5057480;28;20525;-84
2021/07/14 08:40:59;;;;;;;37.10;33.10;;;23.80;99.90;;;;;;5050990;28;20494;-84
2021/07/14 08:43:31;;;;;;;33.50;30.20;;;23.70;99.90;;;;;;5047548;28;20442;-85
2021/07/14 08:45:59;;;;;;;32.93;29.60;;;23.60;99.90;;;;;;5048742;28;20459;-84
2021/07/14 08:48:28;;;;;;;39.70;35.30;;;23.60;99.90;;;;;;5064080;28;20450;-83
2021/07/14 08:50:59;;;;;;;38.90;34.93;;;23.60;99.90;;;;;;5057419;28;20460;-84
2021/07/14 08:53:27;;;;;;;39.37;35.40;;;23.50;99.90;;;;;;5045132;28;20465;-84
2021/07/14 08:55:56;;;;;;;39.20;33.57;;;23.40;99.90;;;;;;5047044;28;20455;-83
2021/07/14 08:58:25;;;;;;;39.90;33.10;;;23.40;99.90;;;;;;5046723;28;20469;-83
2021/07/14 09:00:54;;;;;;;34.67;30.43;;;23.30;99.90;;;;;;5059203;28;20489;-84
2021/07/14 09:03:21;;;;;;;40.57;36.27;;;23.20;99.90;;;;;;5043858;28;20458;-83
2021/07/14 09:05:50;;;;;;;38.00;34.00;;;23.20;99.90;;;;;;5050954;28;20485;-83
2021/07/14 09:08:17;;;;;;;41.90;37.00;;;23.10;99.90;;;;;;5048111;28;20454;-84
2021/07/14 09:10:46;;;;;;;40.90;36.77;;;23.00;99.90;;;;;;5054578;28;20481;-84
2021/07/14 09:13:14;;;;;;;42.63;38.10;;;22.90;99.90;;;;;;5055023;28;20938;-83
2021/07/14 09:15:47;;;;;;;39.10;35.00;;;22.90;99.90;;;;;;5049714;28;20843;-83
2021/07/14 09:18:23;;;;;;;40.57;36.17;;;23.00;99.90;;;;;;5053548;28;20438;-85
2021/07/14 09:20:54;;;;;;;42.10;36.67;;;23.20;99.90;;;;;;5050575;28;21025;-85
2021/07/14 09:23:25;;;;;;;47.37;42.57;;;23.30;99.90;;;;;;5049716;28;20454;-84
2021/07/14 09:25:54;;;;;;;36.83;33.10;;;23.40;99.90;;;;;;5050491;28;20466;-85
2021/07/14 09:28:23;;;;;;;40.13;35.83;;;23.50;99.90;;;;;;5048283;28;20455;-84
2021/07/14 09:30:58;;;;;;;37.73;33.73;;;23.50;99.90;;;;;;5051845;28;20459;-84
2021/07/14 09:33:26;;;;;;;42.33;37.93;;;23.60;99.90;;;;;;5038394;28;20442;-85
2021/07/14 09:35:57;;;;;;;36.63;32.80;;;23.60;99.90;;;;;;5056169;28;20471;-84
2021/07/14 09:38:27;;;;;;;37.73;33.93;;;23.60;99.90;;;;;;5039036;28;20450;-84
2021/07/14 09:40:55;;;;;;;38.53;34.73;;;23.70;99.90;;;;;;5058026;28;20588;-84
2021/07/14 09:46:23;;;;;;;37.47;33.60;;;23.80;99.90;;;;;;5048961;28;20479;-84
2021/07/14 09:49:13;;;;;;;37.20;33.20;;;23.80;99.90;;;;;;5052823;28;20461;-85
2021/07/14 09:52:09;;;;;;;37.67;34.00;;;23.70;99.90;;;;;;5048889;28;20447;-84
2021/07/14 09:54:37;;;;;;;34.63;31.10;;;23.60;99.90;;;;;;5049935;28;20474;-84
2021/07/14 09:57:48;;;;;;;32.87;29.73;;;23.60;99.90;;;;;;5033573;28;21000;-85
2021/07/14 10:00:47;;;;;;;38.30;34.50;;;23.50;99.90;;;;;;5041489;28;20446;-84
2021/07/14 10:03:41;;;;;;;38.17;34.70;;;23.40;99.90;;;;;;5047487;28;20862;-84
2021/07/14 10:06:11;;;;;;;36.97;33.23;;;23.40;99.90;;;;;;5054088;28;20538;-84
2021/07/14 10:08:46;;;;;;;37.13;33.10;;;23.30;99.90;;;;;;5049132;28;20447;-83
2021/07/14 10:11:19;;;;;;;35.23;31.73;;;23.30;99.90;;;;;;5056700;28;20434;-83
2021/07/14 10:13:55;;;;;;;38.67;34.40;;;23.20;99.90;;;;;;5054673;28;20446;-84
2021/07/14 10:16:24;;;;;;;36.47;32.47;;;23.20;99.90;;;;;;5042528;28;20426;-83
2021/07/14 10:19:03;;;;;;;39.20;35.10;;;23.30;99.90;;;;;;5058958;28;21002;-83
2021/07/14 10:21:32;;;;;;;51.17;45.20;;;23.20;99.90;;;;;;5040521;28;20504;-85
2021/07/14 10:24:01;;;;;;;38.80;34.87;;;23.20;99.90;;;;;;5039173;28;21011;-85
2021/07/14 10:26:29;;;;;;;42.73;38.13;;;23.20;99.90;;;;;;5052495;28;20450;-85
2021/07/14 10:28:57;;;;;;;39.40;35.43;;;23.20;99.90;;;;;;5049115;28;20446;-85
2021/07/14 10:31:26;;;;;;;38.87;35.07;;;23.10;99.90;;;;;;5046316;28;20434;-85
2021/07/14 10:33:55;;;;;;;37.90;34.37;;;23.10;99.90;;;;;;5049012;28;20450;-85
2021/07/14 10:36:25;;;;;;;35.23;31.63;;;23.00;99.90;;;;;;5057090;28;20446;-84
2021/07/14 10:38:55;;;;;;;36.77;33.13;;;23.10;99.90;;;;;;5057839;28;20545;-85
2021/07/14 10:41:26;;;;;;;32.30;29.30;;;23.10;99.90;;;;;;5042757;28;21107;-85
2021/07/14 10:43:55;;;;;;;30.70;27.70;;;23.20;99.90;;;;;;5061061;28;20442;-85
2021/07/14 10:46:25;;;;;;;31.63;28.53;;;23.20;99.90;;;;;;5047359;28;20514;-86
2021/07/14 10:48:53;;;;;;;33.07;29.67;;;23.20;99.90;;;;;;5063668;28;20442;-85
2021/07/14 10:51:21;;;;;;;34.17;30.67;;;23.20;99.90;;;;;;5060234;28;20525;-85
2021/07/14 10:53:53;;;;;;;33.37;29.10;;;23.30;99.90;;;;;;5057874;28;20438;-85
2021/07/14 10:56:21;;;;;;;32.87;26.30;;;23.40;99.90;;;;;;5054275;28;20513;-85
2021/07/14 10:59:00;;;;;;;32.83;29.77;;;23.50;99.90;;;;;;5047710;28;20447;-85
2021/07/14 11:01:44;;;;;;;26.93;24.43;;;23.50;99.90;;;;;;5040393;28;20990;-86
2021/07/14 11:04:36;;;;;;;29.57;26.77;;;23.80;99.90;;;;;;5052565;28;20471;-85
2021/07/14 11:07:06;;;;;;;26.80;24.20;;;23.80;99.90;;;;;;5029389;28;20461;-85
2021/07/14 11:09:34;;;;;;;31.30;28.20;;;23.70;99.90;;;;;;5044103;28;20446;-85
2021/07/14 11:12:03;;;;;;;30.90;27.67;;;23.60;99.90;;;;;;5049050;28;20439;-85
2021/07/14 11:14:39;;;;;;;34.33;30.73;;;23.60;99.90;;;;;;5048237;28;20462;-85
2021/07/14 11:17:07;;;;;;;33.57;30.03;;;23.50;99.90;;;;;;5047753;28;20431;-85
2021/07/14 11:19:46;;;;;;;31.83;28.83;;;23.50;99.90;;;;;;5050008;28;20440;-86
2021/07/14 11:22:15;;;;;;;31.40;28.30;;;23.60;99.90;;;;;;5045060;28;20471;-86
2021/07/14 11:24:59;;;;;;;27.30;24.80;;;23.60;99.90;;;;;;5035860;28;20509;-85
2021/07/14 11:27:46;;;;;;;31.10;28.23;;;23.80;99.90;;;;;;5043074;28;20953;-86
2021/07/14 11:30:40;;;;;;;34.43;30.37;;;23.90;99.90;;;;;;5043915;28;20475;-85
2021/07/14 11:33:08;;;;;;;31.63;28.33;;;23.90;99.90;;;;;;5046723;28;20466;-86
2021/07/14 11:36:03;;;;;;;33.50;30.03;;;24.10;99.90;;;;;;5026568;28;20531;-85
2021/07/14 11:38:43;;;;;;;29.40;26.43;;;24.30;99.90;;;;;;5037129;28;20490;-85
2021/07/14 11:41:20;;;;;;;29.67;26.97;;;24.60;99.90;;;;;;5053586;28;20473;-85
2021/07/14 11:54:48;;;;;;;30.20;27.40;;;26.00;99.90;;;;;;5018435;28;20492;-87
2021/07/14 11:58:04;;;;;;;29.57;26.97;;;26.40;99.90;;;;;;5013398;28;20691;-86
2021/07/14 12:01:20;;;;;;;28.50;25.70;;;26.70;99.90;;;;;;5029199;28;20431;-87
2021/07/14 13:01:32;;;;;;;41.33;36.83;;;25.70;99.90;;;;;;4851597;29;20455;-87
2021/07/14 13:15:06;;;;;;;40.33;36.13;;;25.50;99.90;;;;;;4798359;29;20555;-84
2021/07/14 13:17:37;;;;;;;43.40;39.00;;;25.40;99.90;;;;;;4801348;29;20465;-86
2021/07/14 13:20:11;;;;;;;40.87;37.00;;;25.40;99.90;;;;;;4817707;29;20802;-87
2021/07/14 13:22:39;;;;;;;38.77;34.70;;;25.40;99.90;;;;;;4869527;29;20489;-86
2021/07/14 13:25:10;;;;;;;43.33;39.20;;;25.60;99.90;;;;;;5012960;28;20472;-87
2021/07/14 13:27:38;;;;;;;40.57;36.60;;;25.70;99.90;;;;;;5025746;28;20447;-86
2021/07/14 13:30:29;;;;;;;41.40;37.47;;;25.90;99.90;;;;;;5040016;28;20463;-87
2021/07/14 13:33:04;;;;;;;39.13;35.10;;;26.00;99.90;;;;;;5024824;28;20917;-86
2021/07/14 13:35:39;;;;;;;40.90;37.00;;;26.00;99.90;;;;;;5031530;28;20493;-86
2021/07/14 13:38:46;;;;;;;37.87;34.00;;;25.90;99.90;;;;;;5024477;28;20458;-86
2021/07/14 13:41:27;;;;;;;41.97;37.50;;;25.80;99.90;;;;;;5030280;28;21135;-86
2021/07/14 13:43:59;;;;;;;43.37;39.00;;;25.70;99.90;;;;;;5035157;28;20443;-87
2021/07/14 13:46:27;;;;;;;45.37;40.87;;;25.60;99.90;;;;;;5033961;28;20527;-87
2021/07/14 13:49:00;;;;;;;40.50;36.30;;;25.40;99.90;;;;;;5032427;28;20456;-87
2021/07/14 13:51:31;;;;;;;42.50;38.17;;;25.50;99.90;;;;;;5046568;28;20450;-88
2021/07/14 13:54:12;;;;;;;42.87;38.50;;;25.60;99.90;;;;;;5033914;28;20450;-87
2021/07/14 13:56:40;;;;;;;44.27;39.77;;;25.60;99.90;;;;;;5031492;28;21024;-84
2021/07/14 13:59:20;;;;;;;43.67;39.47;;;25.60;99.90;;;;;;5040737;28;20452;-85
2021/07/14 14:01:58;;;;;;;37.70;33.87;;;25.70;99.90;;;;;;5037386;28;20459;-86
2021/07/14 14:04:26;;;;;;;37.07;33.73;;;25.80;99.90;;;;;;5035225;28;20482;-85
2021/07/14 14:06:54;;;;;;;42.53;38.37;;;25.90;99.90;;;;;;5033712;28;20516;-86
2021/07/14 14:09:22;;;;;;;37.00;33.40;;;26.20;99.90;;;;;;5025797;28;20450;-85
2021/07/14 14:11:50;;;;;;;40.47;36.57;;;26.40;99.90;;;;;;5026264;28;20444;-86
2021/07/14 14:14:18;;;;;;;38.70;34.83;;;26.40;99.90;;;;;;5019214;28;20539;-86
2021/07/14 14:16:46;;;;;;;38.73;35.17;;;26.70;99.90;;;;;;5013425;28;20454;-86